Time;durP1;ratioP1;P1;durP2;ratioP2;P2;SDS_P1;SDS_P2;PMS_P1;PMS_P2;Temp;Humidity;BMP_temperature;BMP_pressure;BME280_temperature;BME280_humidity;BME280_pressure;Samples;Min_cycle;Max_cycle;Signal;HPM_P1;HPM_P2
2023/08/01 00:00:47;;;;;;;21.85;6.20;;;15.60;99.90;;;;;;5033911;28;20098;-26
2023/08/01 00:03:13;;;;;;;16.25;5.88;;;15.70;99.90;;;;;;5033879;28;20138;-27
2023/08/01 00:05:44;;;;;;;15.73;6.15;;;15.50;99.90;;;;;;5033512;28;20068;-27
2023/08/01 00:08:12;;;;;;;18.52;5.53;;;15.60;99.90;;;;;;5033864;28;20041;-26
2023/08/01 00:10:38;;;;;;;17.27;6.45;;;15.50;99.90;;;;;;5034550;28;20164;-25
2023/08/01 00:13:04;;;;;;;19.58;6.15;;;15.40;99.90;;;;;;5034311;28;20188;-26
2023/08/01 00:15:30;;;;;;;12.70;5.30;;;15.50;99.90;;;;;;5034088;28;20072;-25
2023/08/01 00:17:55;;;;;;;18.95;5.10;;;15.30;99.90;;;;;;5032851;28;20049;-27
2023/08/01 00:20:21;;;;;;;18.50;5.53;;;15.30;99.90;;;;;;5033708;28;20052;-26
2023/08/01 00:22:47;;;;;;;14.25;4.60;;;15.30;99.90;;;;;;5034236;28;20045;-26
2023/08/01 00:25:13;;;;;;;10.30;5.13;;;15.20;99.90;;;;;;5033619;28;20132;-26
2023/08/01 00:27:39;;;;;;;17.17;5.70;;;15.20;99.90;;;;;;5032390;28;20133;-26
2023/08/01 00:30:05;;;;;;;14.63;5.18;;;15.20;99.90;;;;;;5033187;28;20045;-26
2023/08/01 00:32:31;;;;;;;14.43;6.53;;;15.20;99.90;;;;;;5032368;28;20091;-26
2023/08/01 00:34:57;;;;;;;14.07;4.80;;;15.10;99.90;;;;;;5033461;28;20045;-26
2023/08/01 00:37:23;;;;;;;9.18;4.55;;;15.10;99.90;;;;;;5032530;28;20060;-26
2023/08/01 00:39:48;;;;;;;14.10;5.22;;;15.00;99.90;;;;;;5033441;28;20041;-27
2023/08/01 00:42:16;;;;;;;11.57;5.68;;;15.10;99.90;;;;;;5033741;28;20049;-26
2023/08/01 00:44:41;;;;;;;12.18;5.15;;;15.10;99.90;;;;;;5032280;28;20096;-26
2023/08/01 00:47:09;;;;;;;13.43;6.03;;;15.00;99.90;;;;;;5033115;28;20053;-26
2023/08/01 00:49:35;;;;;;;11.65;5.45;;;15.00;99.90;;;;;;5033368;28;20049;-26
2023/08/01 00:52:01;;;;;;;13.73;5.88;;;15.00;99.90;;;;;;5034206;28;20042;-26
2023/08/01 00:54:27;;;;;;;9.80;4.90;;;14.90;99.90;;;;;;5032210;28;20059;-26
2023/08/01 00:56:53;;;;;;;13.25;5.97;;;15.00;99.90;;;;;;5032341;28;20060;-26
2023/08/01 00:59:18;;;;;;;12.18;5.50;;;14.90;99.90;;;;;;5036746;28;20050;-26
2023/08/01 01:01:44;;;;;;;20.25;7.07;;;14.90;99.90;;;;;;5037177;28;20391;-26
2023/08/01 01:04:10;;;;;;;11.15;5.57;;;14.90;99.90;;;;;;5037159;28;20091;-26
2023/08/01 01:06:43;;;;;;;20.58;6.47;;;14.80;99.90;;;;;;5019538;28;20049;-26
2023/08/01 01:09:19;;;;;;;;;;;14.80;99.90;;;;;;5037442;28;20076;-27
2023/08/01 01:11:45;;;;;;;14.60;5.97;;;14.70;99.90;;;;;;5037544;28;19921;-27
2023/08/01 01:14:11;;;;;;;15.98;6.35;;;14.60;99.90;;;;;;5036248;28;20054;-26
2023/08/01 01:16:37;;;;;;;22.77;7.15;;;14.60;99.90;;;;;;5036837;28;20501;-26
2023/08/01 01:19:07;;;;;;;18.30;6.72;;;14.60;99.90;;;;;;5036794;28;20123;-26
2023/08/01 01:21:38;;;;;;;11.45;6.03;;;14.50;99.90;;;;;;5037683;28;20048;-26
2023/08/01 01:24:08;;;;;;;14.35;6.68;;;14.60;99.90;;;;;;5037231;28;20179;-26
2023/08/01 01:26:34;;;;;;;20.65;6.70;;;14.50;99.90;;;;;;5036362;28;20411;-26
2023/08/01 01:29:01;;;;;;;12.38;6.25;;;14.40;99.90;;;;;;5037221;28;20045;-27
2023/08/01 01:31:28;;;;;;;14.50;6.10;;;14.50;99.90;;;;;;5035804;28;20048;-26
2023/08/01 01:33:55;;;;;;;14.25;6.22;;;14.50;99.90;;;;;;5036554;28;20055;-26
2023/08/01 01:36:20;;;;;;;12.98;7.15;;;14.50;99.90;;;;;;5035337;28;20049;-27
2023/08/01 01:38:46;;;;;;;18.90;7.80;;;14.50;99.90;;;;;;5036614;28;20059;-26
2023/08/01 01:41:12;;;;;;;11.27;7.75;;;14.40;99.90;;;;;;5036735;28;20047;-26
2023/08/01 01:43:38;;;;;;;14.68;7.13;;;14.50;99.90;;;;;;5036909;28;20123;-26
2023/08/01 01:46:04;;;;;;;15.20;7.28;;;14.60;99.90;;;;;;5037132;28;20054;-26
2023/08/01 01:48:29;;;;;;;16.30;7.35;;;14.40;99.90;;;;;;5018614;28;20484;-26
2023/08/01 01:50:55;;;;;;;21.33;7.97;;;14.60;99.90;;;;;;5036586;28;20107;-26
2023/08/01 01:53:21;;;;;;;15.32;7.38;;;14.30;99.90;;;;;;5018442;28;20061;-26
2023/08/01 01:55:46;;;;;;;13.45;6.50;;;14.50;99.90;;;;;;5036163;28;20408;-27
2023/08/01 01:58:12;;;;;;;17.05;6.13;;;14.20;99.90;;;;;;5035986;28;20041;-26
2023/08/01 02:00:38;;;;;;;16.52;6.70;;;14.50;99.90;;;;;;5036081;28;20132;-26
2023/08/01 02:03:04;;;;;;;14.30;6.55;;;14.30;99.90;;;;;;5035104;28;20629;-26
2023/08/01 02:05:30;;;;;;;16.30;6.53;;;14.30;99.90;;;;;;5035902;28;20053;-26
2023/08/01 02:07:56;;;;;;;14.60;6.70;;;14.40;99.90;;;;;;5035069;28;20042;-26
2023/08/01 02:10:21;;;;;;;29.05;7.82;;;14.00;99.90;;;;;;5033953;28;20486;-26
2023/08/01 02:12:47;;;;;;;19.60;7.72;;;14.00;99.90;;;;;;5036437;28;20486;-26
2023/08/01 02:15:13;;;;;;;16.85;7.10;;;14.20;99.90;;;;;;5034807;28;20482;-26
2023/08/01 02:17:39;;;;;;;13.38;7.03;;;14.00;99.90;;;;;;5035737;28;20045;-26
2023/08/01 02:20:05;;;;;;;14.35;7.65;;;13.90;99.90;;;;;;5035981;28;20111;-27
2023/08/01 02:22:32;;;;;;;16.83;6.82;;;13.90;99.90;;;;;;5035693;28;20176;-26
2023/08/01 02:24:58;;;;;;;21.10;7.07;;;13.80;99.90;;;;;;5035648;28;20056;-27
2023/08/01 02:27:24;;;;;;;17.63;7.70;;;13.70;99.90;;;;;;5001557;28;20049;-26
2023/08/01 02:29:52;;;;;;;18.65;7.85;;;13.80;99.90;;;;;;5035452;28;20095;-26
2023/08/01 02:32:18;;;;;;;18.27;8.05;;;13.80;99.90;;;;;;5034329;28;20084;-27
2023/08/01 02:34:44;;;;;;;16.80;7.35;;;13.90;99.90;;;;;;5034409;28;20081;-26
2023/08/01 02:37:10;;;;;;;20.15;8.07;;;13.80;99.90;;;;;;5034417;28;20133;-26
2023/08/01 02:39:35;;;;;;;15.75;7.13;;;13.90;99.90;;;;;;5035439;28;20045;-26
2023/08/01 02:42:02;;;;;;;16.02;6.55;;;13.90;99.90;;;;;;5035324;28;20049;-26
2023/08/01 02:44:28;;;;;;;18.02;6.97;;;13.80;99.90;;;;;;5035310;28;20056;-26
2023/08/01 02:46:54;;;;;;;19.02;6.90;;;13.70;99.90;;;;;;5035179;28;20041;-27
2023/08/01 02:49:20;;;;;;;21.70;7.50;;;13.70;99.90;;;;;;5035143;28;20052;-26
2023/08/01 02:51:46;;;;;;;18.30;6.80;;;13.60;99.90;;;;;;5035075;28;20048;-28
2023/08/01 02:54:11;;;;;;;12.38;7.00;;;13.60;99.90;;;;;;5035149;28;20061;-27
2023/08/01 02:56:41;;;;;;;20.13;8.05;;;13.90;99.90;;;;;;5035011;28;20053;-27
2023/08/01 02:59:10;;;;;;;13.60;5.95;;;14.10;99.90;;;;;;5034564;28;20045;-27
2023/08/01 03:01:37;;;;;;;17.27;7.50;;;14.00;99.90;;;;;;5034935;28;20161;-26
2023/08/01 03:04:04;;;;;;;18.60;7.78;;;13.80;99.90;;;;;;5033718;28;20049;-27
2023/08/01 03:06:30;;;;;;;22.13;8.27;;;14.30;99.90;;;;;;5034812;28;20053;-26
2023/08/01 03:08:56;;;;;;;19.23;7.45;;;14.40;99.90;;;;;;5034794;28;20045;-26
2023/08/01 03:11:22;;;;;;;11.90;5.97;;;14.10;99.90;;;;;;5033807;28;20579;-24
2023/08/01 03:13:47;;;;;;;17.30;7.70;;;14.30;99.90;;;;;;5017260;28;20503;-23
2023/08/01 03:16:13;;;;;;;15.25;7.22;;;14.60;99.90;;;;;;5033401;28;20048;-22
2023/08/01 03:18:38;;;;;;;14.57;7.43;;;14.50;99.90;;;;;;5033380;28;20042;-22
2023/08/01 03:21:04;;;;;;;14.05;6.80;;;14.10;99.90;;;;;;5033040;28;20057;-21
2023/08/01 03:23:30;;;;;;;16.70;7.55;;;14.70;99.90;;;;;;5034827;28;20091;-20
2023/08/01 03:25:56;;;;;;;16.73;6.25;;;14.40;99.90;;;;;;5034455;28;20049;-21
2023/08/01 03:28:22;;;;;;;16.75;7.75;;;14.90;99.90;;;;;;5035254;28;20167;-21
2023/08/01 03:30:50;;;;;;;17.73;7.47;;;14.20;99.90;;;;;;5033984;28;20511;-22
2023/08/01 03:33:16;;;;;;;14.02;6.72;;;14.80;99.90;;;;;;5034532;28;20518;-22
2023/08/01 03:35:42;;;;;;;16.58;6.00;;;14.70;99.90;;;;;;5034235;28;20046;-22
2023/08/01 03:38:07;;;;;;;11.82;6.82;;;14.20;99.90;;;;;;5033823;28;20041;-23
2023/08/01 03:40:33;;;;;;;14.88;6.13;;;14.50;99.90;;;;;;5034095;28;20552;-23
2023/08/01 03:42:59;;;;;;;15.48;6.15;;;14.90;99.90;;;;;;5034162;28;20183;-23
2023/08/01 03:45:25;;;;;;;11.48;5.82;;;14.90;99.90;;;;;;5034347;28;20136;-23
2023/08/01 03:47:51;;;;;;;17.38;6.70;;;14.20;99.90;;;;;;5017555;28;20045;-23
2023/08/01 03:50:17;;;;;;;14.07;4.65;;;14.90;99.90;;;;;;5032904;28;20147;-24
2023/08/01 03:52:42;;;;;;;11.30;5.03;;;14.40;99.90;;;;;;5032806;28;20115;-24
2023/08/01 03:55:08;;;;;;;11.27;4.53;;;14.20;99.90;;;;;;5032959;28;20067;-24
2023/08/01 03:57:34;;;;;;;9.20;4.10;;;14.20;99.90;;;;;;5032944;28;20049;-24
2023/08/01 04:00:00;;;;;;;11.70;4.32;;;14.40;99.90;;;;;;5032632;28;20091;-24
2023/08/01 04:02:26;;;;;;;15.00;4.43;;;14.70;99.90;;;;;;5033817;28;20144;-24
2023/08/01 04:04:53;;;;;;;10.30;4.00;;;14.60;99.90;;;;;;5032691;28;20124;-24
2023/08/01 04:07:18;;;;;;;12.10;3.88;;;14.80;99.90;;;;;;5033820;28;20085;-24
2023/08/01 04:09:44;;;;;;;10.88;4.03;;;14.20;99.90;;;;;;5016456;28;20080;-24
2023/08/01 04:12:10;;;;;;;16.40;4.57;;;14.20;99.90;;;;;;5034322;28;20366;-24
2023/08/01 04:14:35;;;;;;;12.60;3.15;;;14.20;99.90;;;;;;5032856;28;20037;-24
2023/08/01 04:17:01;;;;;;;11.85;3.25;;;14.60;99.90;;;;;;5033686;28;20050;-24
2023/08/01 04:19:27;;;;;;;11.07;3.88;;;14.30;99.90;;;;;;5033614;28;20042;-24
2023/08/01 04:21:52;;;;;;;18.08;3.67;;;14.70;99.90;;;;;;5016363;28;20049;-24
2023/08/01 04:24:18;;;;;;;13.75;3.13;;;14.60;99.90;;;;;;5033014;28;20076;-24
2023/08/01 04:26:44;;;;;;;7.32;2.35;;;14.60;99.90;;;;;;5033583;28;20050;-24
2023/08/01 04:29:10;;;;;;;7.18;3.00;;;14.70;99.90;;;;;;5034319;28;20038;-24
2023/08/01 04:31:35;;;;;;;9.07;3.10;;;14.50;99.90;;;;;;5032420;28;20044;-24
2023/08/01 04:34:01;;;;;;;14.07;3.63;;;14.20;99.90;;;;;;5036428;28;20045;-24
2023/08/01 04:36:27;;;;;;;17.90;3.92;;;14.60;99.90;;;;;;5020522;28;20091;-24
2023/08/01 04:38:52;;;;;;;6.88;2.70;;;14.70;99.90;;;;;;5037577;28;20502;-24
2023/08/01 04:41:18;;;;;;;10.13;3.38;;;14.20;99.90;;;;;;5038117;28;20468;-24
2023/08/01 04:43:44;;;;;;;15.73;3.10;;;14.50;99.90;;;;;;5037510;28;20041;-24
2023/08/01 04:46:09;;;;;;;10.23;2.78;;;14.70;99.90;;;;;;5037772;28;20068;-24
2023/08/01 04:48:35;;;;;;;11.90;2.90;;;14.70;99.90;;;;;;5037020;28;20049;-24
2023/08/01 04:51:01;;;;;;;13.00;2.92;;;14.30;99.90;;;;;;5037421;28;20116;-24
2023/08/01 04:53:26;;;;;;;12.68;3.53;;;14.50;99.90;;;;;;5037685;28;20064;-25
2023/08/01 04:55:52;;;;;;;9.52;2.60;;;14.60;99.90;;;;;;5036594;28;20059;-26
2023/08/01 04:58:18;;;;;;;12.32;3.22;;;14.70;99.90;;;;;;5037115;28;20044;-26
2023/08/01 05:00:43;;;;;;;6.60;2.22;;;14.90;99.90;;;;;;5036901;28;20563;-26
2023/08/01 05:03:09;;;;;;;8.27;2.42;;;15.40;99.90;;;;;;5037125;28;20111;-26
2023/08/01 05:05:35;;;;;;;11.55;3.65;;;15.10;99.90;;;;;;5036935;28;20045;-25
2023/08/01 05:08:01;;;;;;;9.13;2.63;;;15.20;99.90;;;;;;5036969;28;20046;-25
2023/08/01 05:10:26;;;;;;;14.90;3.55;;;15.20;99.90;;;;;;5036858;28;20445;-25
2023/08/01 05:12:52;;;;;;;12.90;2.42;;;15.20;99.90;;;;;;5035904;28;20550;-25
2023/08/01 05:15:18;;;;;;;10.13;2.85;;;15.30;99.90;;;;;;5019158;28;20560;-25
2023/08/01 05:17:44;;;;;;;13.63;3.05;;;15.40;99.90;;;;;;5036009;28;20049;-25
2023/08/01 05:20:10;;;;;;;8.90;2.80;;;15.00;99.90;;;;;;5036823;28;20506;-25
2023/08/01 05:22:35;;;;;;;8.45;3.25;;;15.00;99.90;;;;;;5036526;28;20561;-25
2023/08/01 05:25:01;;;;;;;7.05;2.25;;;15.20;99.90;;;;;;5036986;28;20050;-25
2023/08/01 05:27:27;;;;;;;10.57;2.90;;;15.30;99.90;;;;;;5035461;28;20053;-25
2023/08/01 05:29:53;;;;;;;8.90;2.10;;;15.10;99.90;;;;;;5035798;28;20107;-25
2023/08/01 05:32:19;;;;;;;8.30;2.53;;;14.90;99.90;;;;;;5019172;28;20049;-25
2023/08/01 05:34:44;;;;;;;9.55;3.00;;;15.20;99.90;;;;;;5037159;28;20424;-25
2023/08/01 05:37:10;;;;;;;11.35;3.00;;;15.20;99.90;;;;;;5036551;28;20123;-25
2023/08/01 05:39:36;;;;;;;8.38;3.25;;;15.10;99.90;;;;;;5036089;28;20160;-26
2023/08/01 05:42:01;;;;;;;10.00;3.35;;;14.90;99.90;;;;;;5035254;28;20053;-25
2023/08/01 05:44:27;;;;;;;12.82;3.60;;;14.90;99.90;;;;;;5036658;28;20429;-26
2023/08/01 05:46:53;;;;;;;11.85;3.00;;;15.00;99.90;;;;;;5036374;28;20076;-25
2023/08/01 05:49:18;;;;;;;6.30;3.30;;;15.40;99.90;;;;;;5035702;28;20388;-26
2023/08/01 05:51:44;;;;;;;10.57;3.60;;;15.30;99.90;;;;;;5018643;28;20111;-24
2023/08/01 05:54:10;;;;;;;6.80;3.13;;;15.50;99.90;;;;;;5018884;28;20438;-23
2023/08/01 05:56:36;;;;;;;7.25;3.20;;;15.10;99.90;;;;;;5018817;28;20052;-23
2023/08/01 05:59:01;;;;;;;4.75;2.33;;;15.50;99.90;;;;;;5036635;28;20053;-22
2023/08/01 06:01:27;;;;;;;7.15;2.60;;;15.40;99.90;;;;;;5036113;28;20383;-22
2023/08/01 06:03:53;;;;;;;6.50;2.30;;;14.70;99.90;;;;;;5036113;28;20150;-22
2023/08/01 06:06:19;;;;;;;7.30;2.60;;;14.90;99.90;;;;;;5036022;28;20505;-22
2023/08/01 06:08:44;;;;;;;5.80;2.53;;;15.30;99.90;;;;;;5035974;28;20045;-22
2023/08/01 06:11:10;;;;;;;7.30;3.10;;;14.70;99.90;;;;;;5036204;28;20056;-21
2023/08/01 06:13:36;;;;;;;9.80;2.75;;;15.20;99.90;;;;;;5035161;28;20045;-22
2023/08/01 06:16:01;;;;;;;6.10;3.20;;;15.10;99.90;;;;;;5036380;28;20049;-22
2023/08/01 06:18:27;;;;;;;5.80;1.90;;;15.20;99.90;;;;;;5035704;28;20042;-22
2023/08/01 06:20:53;;;;;;;7.47;2.00;;;14.70;99.90;;;;;;5035761;28;20095;-22
2023/08/01 06:23:18;;;;;;;6.03;1.85;;;15.20;99.90;;;;;;5034408;28;20049;-22
2023/08/01 06:25:44;;;;;;;5.47;2.03;;;14.90;99.90;;;;;;5035642;28;20128;-22
2023/08/01 06:28:10;;;;;;;3.80;1.60;;;14.70;99.90;;;;;;5036466;28;20049;-20
2023/08/01 06:30:36;;;;;;;4.25;1.63;;;15.10;99.90;;;;;;5034647;28;20134;-22
2023/08/01 06:33:01;;;;;;;4.70;1.90;;;14.70;99.90;;;;;;5035201;28;20050;-22
2023/08/01 06:35:27;;;;;;;5.53;1.63;;;14.80;99.90;;;;;;5035796;28;20088;-22
2023/08/01 06:37:53;;;;;;;5.82;1.80;;;15.20;99.90;;;;;;5035301;28;20041;-23
2023/08/01 06:40:18;;;;;;;3.20;1.48;;;15.00;99.90;;;;;;5034361;28;20059;-23
2023/08/01 06:42:44;;;;;;;4.53;1.27;;;15.10;99.90;;;;;;5035933;28;20053;-24
2023/08/01 06:45:10;;;;;;;3.63;1.67;;;15.50;99.90;;;;;;5035828;28;20049;-25
2023/08/01 06:47:35;;;;;;;4.47;1.52;;;15.50;99.90;;;;;;5035229;28;20046;-25
2023/08/01 06:50:01;;;;;;;3.75;1.00;;;15.60;99.90;;;;;;5034210;28;20057;-26
2023/08/01 06:52:27;;;;;;;4.93;1.00;;;15.60;99.90;;;;;;5035115;28;20049;-26
2023/08/01 06:54:52;;;;;;;4.60;1.05;;;16.10;99.90;;;;;;5032847;28;20053;-27
2023/08/01 06:57:18;;;;;;;3.53;0.90;;;16.10;99.90;;;;;;5034429;28;20049;-25
2023/08/01 06:59:44;;;;;;;4.15;1.38;;;16.20;99.90;;;;;;5034891;28;20365;-25
2023/08/01 07:02:10;;;;;;;6.13;1.10;;;15.90;99.90;;;;;;5035768;28;20120;-25
2023/08/01 07:04:37;;;;;;;5.25;0.82;;;15.90;99.90;;;;;;5033750;28;20057;-25
2023/08/01 07:07:03;;;;;;;4.03;1.00;;;15.80;99.90;;;;;;5033661;28;20084;-25
2023/08/01 07:09:29;;;;;;;3.95;0.82;;;15.70;99.90;;;;;;5033779;28;20555;-24
2023/08/01 07:11:54;;;;;;;5.47;0.80;;;15.90;99.90;;;;;;5034804;28;20057;-25
2023/08/01 07:14:20;;;;;;;5.93;1.40;;;15.80;99.90;;;;;;5017262;28;20103;-25
2023/08/01 07:16:46;;;;;;;7.95;1.20;;;16.00;99.90;;;;;;5034675;28;20052;-25
2023/08/01 07:19:11;;;;;;;5.63;1.08;;;16.10;99.90;;;;;;5034228;28;20048;-23
2023/08/01 07:21:37;;;;;;;9.10;1.65;;;15.80;99.90;;;;;;5034595;28;20050;-22
2023/08/01 07:24:04;;;;;;;5.70;1.52;;;15.70;99.90;;;;;;5034384;28;20204;-22
2023/08/01 07:26:30;;;;;;;7.28;1.10;;;15.80;99.90;;;;;;5034482;28;20053;-23
2023/08/01 07:28:56;;;;;;;7.32;1.35;;;15.50;99.90;;;;;;5033280;28;20472;-23
2023/08/01 07:31:21;;;;;;;8.30;1.67;;;15.60;99.90;;;;;;5034402;28;20045;-23
2023/08/01 07:33:47;;;;;;;7.70;1.05;;;15.50;99.90;;;;;;5034323;28;20050;-25
2023/08/01 07:36:13;;;;;;;8.10;1.65;;;15.50;99.90;;;;;;5035141;28;20042;-24
2023/08/01 07:38:38;;;;;;;7.80;1.23;;;15.70;99.90;;;;;;5034209;28;20486;-24
2023/08/01 07:41:07;;;;;;;7.47;1.15;;;15.80;99.90;;;;;;5034292;28;20084;-26
2023/08/01 07:43:33;;;;;;;8.45;1.33;;;15.80;99.90;;;;;;5033260;28;20045;-25
2023/08/01 07:46:00;;;;;;;8.77;1.92;;;15.90;99.90;;;;;;5034701;28;20048;-26
2023/08/01 07:48:25;;;;;;;6.15;1.67;;;16.10;99.90;;;;;;5032594;28;20103;-26
2023/08/01 07:50:51;;;;;;;7.03;1.30;;;16.80;99.90;;;;;;5034599;28;20053;-26
2023/08/01 07:53:17;;;;;;;6.13;1.63;;;16.90;99.90;;;;;;5034683;28;20057;-27
2023/08/01 07:55:43;;;;;;;3.97;0.88;;;17.20;99.90;;;;;;5033678;28;20415;-28
2023/08/01 07:58:09;;;;;;;5.47;1.50;;;17.50;99.90;;;;;;5032731;28;20047;-26
2023/08/01 08:00:35;;;;;;;7.10;0.90;;;17.40;99.90;;;;;;5034392;28;20045;-26
2023/08/01 08:03:01;;;;;;;4.93;0.82;;;17.30;99.90;;;;;;5000319;28;20131;-26
2023/08/01 08:05:27;;;;;;;6.60;1.35;;;16.90;99.90;;;;;;5033854;28;20077;-26
2023/08/01 08:07:53;;;;;;;7.25;1.25;;;16.90;99.90;;;;;;5034556;28;20042;-26
2023/08/01 08:10:18;;;;;;;5.97;0.93;;;16.80;99.90;;;;;;5033777;28;20049;-25
2023/08/01 08:12:44;;;;;;;7.95;1.40;;;16.90;99.90;;;;;;5033762;28;20143;-26
2023/08/01 08:15:10;;;;;;;6.70;1.10;;;17.00;99.90;;;;;;5034309;28;20041;-26
2023/08/01 08:17:36;;;;;;;3.25;0.95;;;16.80;99.90;;;;;;5032581;28;20049;-26
2023/08/01 08:20:03;;;;;;;3.15;0.60;;;16.50;99.90;;;;;;5032487;28;20045;-25
2023/08/01 08:22:29;;;;;;;5.65;0.85;;;16.00;99.90;;;;;;5032192;28;20503;-26
2023/08/01 08:24:54;;;;;;;5.80;0.93;;;15.70;99.90;;;;;;5033903;28;20049;-25
2023/08/01 08:27:20;;;;;;;3.55;0.80;;;15.50;99.90;;;;;;5032663;28;20053;-24
2023/08/01 08:29:46;;;;;;;3.42;1.08;;;15.30;99.90;;;;;;5033773;28;20049;-21
2023/08/01 08:32:12;;;;;;;5.10;0.93;;;15.10;99.90;;;;;;5034338;28;20049;-21
2023/08/01 08:34:39;;;;;;;4.55;1.13;;;14.90;99.90;;;;;;5033585;28;20376;-21
2023/08/01 08:37:05;;;;;;;5.47;1.33;;;15.10;99.90;;;;;;5032555;28;20487;-21
2023/08/01 08:39:31;;;;;;;5.78;1.45;;;15.10;99.90;;;;;;5016055;28;20077;-22
2023/08/01 08:41:57;;;;;;;4.07;1.27;;;14.90;99.90;;;;;;5033762;28;20088;-22
2023/08/01 08:44:29;;;;;;;6.10;1.83;;;15.00;99.90;;;;;;5033527;28;20049;-23
2023/08/01 08:47:02;;;;;;;9.18;1.70;;;15.10;99.90;;;;;;5033399;28;20136;-23
2023/08/01 08:49:28;;;;;;;3.70;1.38;;;15.60;99.90;;;;;;5032508;28;20484;-24
2023/08/01 08:51:54;;;;;;;4.30;1.23;;;15.60;99.90;;;;;;5032779;28;20049;-25
2023/08/01 08:54:20;;;;;;;5.30;1.60;;;15.90;99.90;;;;;;5015702;28;20534;-25
2023/08/01 08:56:47;;;;;;;6.43;1.48;;;16.40;99.90;;;;;;5032116;28;20060;-26
2023/08/01 08:59:13;;;;;;;5.82;1.55;;;17.40;99.90;;;;;;5033274;28;20085;-26
2023/08/01 09:01:39;;;;;;;6.47;2.00;;;17.70;99.90;;;;;;5032124;28;20107;-26
2023/08/01 09:04:06;;;;;;;7.05;1.42;;;17.40;99.90;;;;;;5033572;28;20125;-25
2023/08/01 09:06:40;;;;;;;6.65;1.40;;;17.20;99.90;;;;;;4983141;28;20052;-26
2023/08/01 09:09:12;;;;;;;7.82;1.40;;;17.10;99.90;;;;;;5033541;28;20100;-25
2023/08/01 09:11:51;;;;;;;8.77;1.98;;;17.00;99.90;;;;;;5033232;28;20049;-25
2023/08/01 09:14:18;;;;;;;6.60;1.45;;;17.00;99.90;;;;;;5033773;28;20049;-25
2023/08/01 09:16:46;;;;;;;5.03;0.90;;;17.20;99.90;;;;;;5032575;28;20057;-26
2023/08/01 09:19:20;;;;;;;3.17;0.70;;;17.10;99.90;;;;;;5033539;28;20092;-25
2023/08/01 09:21:46;;;;;;;2.53;0.93;;;17.20;99.90;;;;;;5036220;28;20060;-26
2023/08/01 09:24:15;;;;;;;2.95;0.85;;;17.20;99.90;;;;;;5035600;28;20081;-24
2023/08/01 09:26:41;;;;;;;2.22;0.30;;;16.90;99.90;;;;;;5036742;28;20045;-25
2023/08/01 09:29:07;;;;;;;1.70;0.60;;;16.90;99.90;;;;;;5035544;28;20037;-25
2023/08/01 09:31:36;;;;;;;3.90;0.50;;;16.70;99.90;;;;;;5036868;28;20143;-24
2023/08/01 09:34:06;;;;;;;7.00;0.82;;;16.50;99.90;;;;;;5002835;28;20049;-25
2023/08/01 09:36:33;;;;;;;6.30;1.33;;;16.40;99.90;;;;;;5035570;28;20058;-25
2023/08/01 09:39:00;;;;;;;2.53;0.55;;;16.60;99.90;;;;;;5035394;28;20053;-25
2023/08/01 09:41:26;;;;;;;4.43;0.57;;;16.70;99.90;;;;;;5037083;28;20061;-25
2023/08/01 09:43:52;;;;;;;6.78;0.98;;;17.00;99.90;;;;;;5037027;28;20377;-25
2023/08/01 09:46:17;;;;;;;8.23;1.75;;;17.70;99.90;;;;;;5036146;28;20053;-26
2023/08/01 09:48:44;;;;;;;4.07;1.20;;;18.30;99.90;;;;;;5036596;28;20103;-25
2023/08/01 09:51:11;;;;;;;8.65;1.20;;;18.30;89.70;;;;;;5036315;28;20045;-26
2023/08/01 09:53:50;;;;;;;7.35;1.50;;;17.80;99.90;;;;;;5035781;28;20521;-26
2023/08/01 09:56:22;;;;;;;5.78;1.52;;;17.60;99.90;;;;;;5036206;28;20050;-26
2023/08/01 09:58:49;;;;;;;4.68;1.60;;;17.40;99.90;;;;;;5019479;28;20128;-26
2023/08/01 10:01:16;;;;;;;3.65;0.80;;;18.10;99.90;;;;;;5036097;28;20071;-26
2023/08/01 10:03:50;;;;;;;5.93;1.30;;;18.50;99.90;;;;;;5034926;28;20132;-27
2023/08/01 10:06:20;;;;;;;7.03;1.30;;;18.40;1.00;;;;;;5036141;28;20128;-26
2023/08/01 10:08:47;;;;;;;4.00;0.82;;;18.40;99.90;;;;;;5035644;28;20148;-26
2023/08/01 10:11:23;;;;;;;2.60;0.47;;;18.10;99.90;;;;;;5034736;28;20096;-24
2023/08/01 10:13:49;;;;;;;1.00;0.50;;;17.50;99.90;;;;;;5035942;28;20049;-25
2023/08/01 10:16:15;;;;;;;4.57;1.38;;;17.20;99.90;;;;;;5035819;28;20042;-26
2023/08/01 10:18:42;;;;;;;2.63;0.68;;;17.30;99.90;;;;;;5036573;28;20103;-25
2023/08/01 10:21:17;;;;;;;5.50;0.77;;;17.30;99.90;;;;;;5036315;28;20056;-26
2023/08/01 10:23:44;;;;;;;6.13;0.73;;;17.20;99.90;;;;;;5036076;28;20045;-26
2023/08/01 10:26:11;;;;;;;3.47;1.00;;;17.40;99.90;;;;;;5034682;28;20487;-27
2023/08/01 10:28:39;;;;;;;3.22;1.13;;;18.00;99.90;;;;;;5018576;28;20041;-26
2023/08/01 10:31:16;;;;;;;4.97;1.10;;;18.60;97.40;;;;;;5034320;28;20045;-27
2023/08/01 10:33:47;;;;;;;6.93;1.13;;;18.90;84.70;;;;;;5036144;28;20037;-27
2023/08/01 10:36:23;;;;;;;5.55;1.05;;;19.00;99.90;;;;;;5034241;28;20103;-26
2023/08/01 10:38:58;;;;;;;1.92;0.90;;;19.20;99.90;;;;;;5018669;28;20045;-26
2023/08/01 10:41:35;;;;;;;5.28;1.05;;;19.10;99.90;;;;;;5035915;28;20073;-27
2023/08/01 10:44:12;;;;;;;20.45;0.75;;;18.80;1.00;;;;;;5034361;28;20054;-27
2023/08/01 10:47:01;;;;;;;4.22;0.80;;;18.40;99.90;;;;;;5018374;28;20392;-27
2023/08/01 10:49:39;;;;;;;2.97;0.60;;;17.80;1.00;;;;;;5035139;28;20402;-27
2023/08/01 10:52:29;;;;;;;2.90;0.52;;;17.80;78.40;;;;;;5035421;28;20120;-28
2023/08/01 10:54:59;;;;;;;5.20;0.77;;;18.20;1.00;;;;;;5033502;28;20062;-27
2023/08/01 10:57:26;;;;;;;5.82;0.90;;;18.80;72.10;;;;;;5035842;28;20053;-26
2023/08/01 10:59:55;;;;;;;3.90;0.60;;;18.90;99.90;;;;;;5034705;28;20480;-28
2023/08/01 11:02:23;;;;;;;5.53;1.00;;;18.70;99.90;;;;;;5034918;28;20132;-27
2023/08/01 11:04:59;;;;;;;3.15;0.50;;;18.90;99.90;;;;;;5034933;28;20053;-27
2023/08/01 11:07:25;;;;;;;2.95;0.68;;;19.00;1.00;;;;;;5018350;28;20063;-27
2023/08/01 11:10:09;;;;;;;3.25;0.85;;;18.70;99.90;;;;;;5034800;28;20120;-27
2023/08/01 11:12:39;;;;;;;4.18;0.88;;;18.50;1.00;;;;;;5035069;28;20049;-27
2023/08/01 11:15:08;;;;;;;2.88;0.70;;;19.10;99.90;;;;;;5034097;28;20128;-27
2023/08/01 11:17:38;;;;;;;5.22;0.80;;;19.60;1.00;;;;;;5033673;28;20064;-28
2023/08/01 11:20:09;;;;;;;4.75;0.55;;;19.70;99.90;;;;;;5033346;28;20049;-28
2023/08/01 11:22:35;;;;;;;4.90;0.50;;;19.30;99.90;;;;;;5017196;28;20049;-27
2023/08/01 11:25:01;;;;;;;6.35;1.05;;;19.00;1.00;;;;;;5033983;28;20128;-28
2023/08/01 11:27:28;;;;;;;2.70;0.65;;;18.80;99.90;;;;;;5016834;28;20480;-28
2023/08/01 11:29:54;;;;;;;2.83;0.75;;;19.20;59.10;;;;;;5034354;28;20057;-28
2023/08/01 11:32:21;;;;;;;2.05;0.55;;;19.70;1.00;;;;;;5034464;28;20395;-28
2023/08/01 11:34:47;;;;;;;0.80;0.35;;;20.00;1.00;;;;;;5034418;28;20045;-29
2023/08/01 11:37:15;;;;;;;2.40;0.40;;;19.40;99.90;;;;;;5034333;28;20558;-29
2023/08/01 11:39:41;;;;;;;2.78;0.35;;;19.10;99.90;;;;;;5034267;28;20118;-28
2023/08/01 11:42:07;;;;;;;4.03;0.65;;;18.90;99.90;;;;;;5032761;28;20509;-28
2023/08/01 11:44:32;;;;;;;4.80;0.70;;;18.70;1.00;;;;;;5032942;28;20060;-30
2023/08/01 11:46:58;;;;;;;2.95;0.68;;;18.60;1.00;;;;;;5016615;28;20095;-29
2023/08/01 11:49:26;;;;;;;1.90;0.38;;;18.70;1.00;;;;;;5034128;28;20404;-29
2023/08/01 11:51:51;;;;;;;4.13;0.80;;;18.70;99.90;;;;;;5032860;28;20051;-29
2023/08/01 11:54:17;;;;;;;3.63;0.60;;;18.70;1.00;;;;;;5034318;28;20054;-29
2023/08/01 11:56:43;;;;;;;2.13;0.38;;;18.50;1.00;;;;;;5033899;28;20081;-30
2023/08/01 11:59:16;;;;;;;5.18;0.60;;;18.20;1.00;;;;;;5034450;28;20345;-31
2023/08/01 12:01:47;;;;;;;3.15;0.57;;;18.30;99.90;;;;;;5033920;28;20041;-30
2023/08/01 12:04:23;;;;;;;3.17;0.65;;;18.60;99.90;;;;;;5032846;28;20042;-31
2023/08/01 12:06:49;;;;;;;4.00;0.80;;;19.00;99.90;;;;;;5033940;28;20038;-30
2023/08/01 12:09:15;;;;;;;4.45;0.77;;;19.60;13.40;;;;;;5033805;28;20047;-30
2023/08/01 12:11:41;;;;;;;3.95;0.73;;;19.60;1.00;;;;;;5033762;28;20045;-30
2023/08/01 12:14:14;;;;;;;5.82;1.58;;;19.40;99.90;;;;;;5033825;28;20125;-30
2023/08/01 12:16:41;;;;;;;;;;;19.40;1.00;;;;;;5034995;28;20130;-31
2023/08/01 12:19:08;;;;;;;2.88;0.82;;;19.60;59.20;;;;;;5033694;28;19921;-32
2023/08/01 12:21:34;;;;;;;3.33;1.05;;;19.40;20.70;;;;;;5033689;28;20056;-31
2023/08/01 12:24:01;;;;;;;6.30;1.40;;;19.80;99.90;;;;;;5033745;28;20049;-31
2023/08/01 12:26:27;;;;;;;7.18;0.90;;;19.80;99.90;;;;;;5033631;28;20102;-31
2023/08/01 12:28:53;;;;;;;3.95;0.77;;;19.50;99.90;;;;;;5032431;28;20038;-32
2023/08/01 12:31:20;;;;;;;2.67;0.60;;;19.10;99.90;;;;;;5033537;28;20475;-32
2023/08/01 12:33:46;;;;;;;4.80;0.95;;;19.30;99.90;;;;;;5032358;28;20049;-33
2023/08/01 12:36:13;;;;;;;3.88;0.98;;;19.20;1.00;;;;;;5033571;28;20132;-33
2023/08/01 12:38:39;;;;;;;3.60;0.95;;;19.40;99.90;;;;;;5033138;28;20170;-32
2023/08/01 12:41:05;;;;;;;7.22;1.67;;;19.40;99.90;;;;;;5032297;28;20139;-32